Time;durP1;ratioP1;P1;durP2;ratioP2;P2;SDS_P1;SDS_P2;PMS_P1;PMS_P2;Temp;Humidity;BMP_temperature;BMP_pressure;BME280_temperature;BME280_humidity;BME280_pressure;Samples;Min_cycle;Max_cycle;Signal;HPM_P1;HPM_P2
2022/09/01 00:00:59;;;;;;;;;;;22.80;67.40;;;;;;4974436;28;19969;-65
2022/09/01 00:03:25;;;;;;;;;;;22.80;67.40;;;;;;4974101;28;19914;-62
2022/09/01 00:05:53;;;;;;;;;;;22.70;67.50;;;;;;4974361;28;19914;-63
2022/09/01 00:08:20;;;;;;;;;;;22.70;67.50;;;;;;4974053;28;19926;-65
2022/09/01 00:10:46;;;;;;;;;;;22.70;67.40;;;;;;4974238;28;20269;-64
2022/09/01 00:13:12;;;;;;;;;;;22.60;67.20;;;;;;4974116;28;20017;-63
2022/09/01 00:15:37;;;;;;;;;;;22.50;68.00;;;;;;4974108;28;19946;-63
2022/09/01 00:18:03;;;;;;;;;;;22.60;67.80;;;;;;4973930;28;19914;-65
2022/09/01 00:20:29;;;;;;;;;;;22.60;67.40;;;;;;4962234;28;20005;-65
2022/09/01 00:22:54;;;;;;;;;;;22.60;67.20;;;;;;4960894;28;20308;-64
2022/09/01 00:25:22;;;;;;;;;;;22.50;67.80;;;;;;4974370;28;19910;-62
2022/09/01 00:27:48;;;;;;;;;;;22.50;67.70;;;;;;4972333;28;19910;-63
2022/09/01 00:30:14;;;;;;;;;;;22.60;67.00;;;;;;4973397;28;19957;-63
2022/09/01 00:32:45;;;;;;;;;;;22.60;67.00;;;;;;4973806;28;19914;-63
2022/09/01 00:35:14;;;;;;;;;;;22.70;67.10;;;;;;4974057;28;19960;-64
2022/09/01 00:37:39;;;;;;;;;;;22.70;66.90;;;;;;4973783;28;19918;-64
2022/09/01 00:40:06;;;;;;;;;;;22.70;66.60;;;;;;4973776;28;19914;-64
2022/09/01 00:42:31;;;;;;;;;;;22.70;66.60;;;;;;4973791;28;19921;-64
2022/09/01 00:44:57;;;;;;;;;;;22.80;66.70;;;;;;4973492;28;19910;-62
2022/09/01 00:47:23;;;;;;;;;;;22.60;66.80;;;;;;4973634;28;20373;-64
2022/09/01 00:49:49;;;;;;;;;;;22.30;67.30;;;;;;4973516;28;20016;-63
2022/09/01 00:52:25;;;;;;;;;;;22.10;67.80;;;;;;4960684;28;20402;-64
2022/09/01 00:54:53;;;;;;;;;;;22.20;68.20;;;;;;4973564;28;19910;-64
2022/09/01 00:57:19;;;;;;;;;;;22.20;68.40;;;;;;4973408;28;20374;-65
2022/09/01 00:59:47;;;;;;;;;;;22.10;67.90;;;;;;4973558;28;19977;-64
2022/09/01 01:02:12;;;;;;;;;;;22.30;68.00;;;;;;4973541;28;19910;-65
2022/09/01 01:04:39;;;;;;;;;;;22.40;67.10;;;;;;4973495;28;19932;-64
2022/09/01 01:07:08;;;;;;;;;;;22.40;66.70;;;;;;4973453;28;20334;-63
2022/09/01 01:09:35;;;;;;;;;;;22.40;66.90;;;;;;4973209;28;20020;-63
2022/09/01 01:12:02;;;;;;;;;;;22.40;66.80;;;;;;4973012;28;19910;-65
2022/09/01 01:14:31;;;;;;;;;;;22.60;66.50;;;;;;4973536;28;19964;-65
2022/09/01 01:16:57;;;;;;;;;;;22.40;66.80;;;;;;4971956;28;19961;-64
2022/09/01 01:24:54;;;;;;;;;;;22.40;66.50;;;;;;4973380;28;19936;-62
2022/09/01 01:27:20;;;;;;;;;;;22.30;66.70;;;;;;4973265;28;20392;-63
2022/09/01 01:29:47;;;;;;;;;;;22.00;68.00;;;;;;4973037;28;19925;-64
2022/09/01 01:32:13;;;;;;;;;;;22.20;67.70;;;;;;4973293;28;19910;-63
2022/09/01 01:34:42;;;;;;;;;;;22.20;67.70;;;;;;4973073;28;19916;-64
2022/09/01 01:37:09;;;;;;;;;;;22.30;66.90;;;;;;4972978;28;19918;-67
2022/09/01 01:39:39;;;;;;;;;;;22.20;67.40;;;;;;4972657;28;19917;-63
2022/09/01 01:42:08;;;;;;;;;;;22.40;66.90;;;;;;4973361;28;20338;-64
2022/09/01 01:44:35;;;;;;;;;;;22.30;66.70;;;;;;4976849;28;19993;-63
2022/09/01 01:47:04;;;;;;;;;;;22.40;66.20;;;;;;4976801;28;19914;-64
2022/09/01 01:49:30;;;;;;;;;;;22.40;66.20;;;;;;4976599;28;20398;-63
2022/09/01 01:51:56;;;;;;;;;;;22.30;67.10;;;;;;4961462;28;20502;-64
2022/09/01 01:54:23;;;;;;;;;;;22.10;67.60;;;;;;4976659;28;19914;-63
2022/09/01 01:56:49;;;;;;;;;;;22.00;67.90;;;;;;4976708;28;19918;-64
2022/09/01 01:59:15;;;;;;;;;;;22.10;70.00;;;;;;4976764;28;20396;-63
2022/09/01 02:01:41;;;;;;;;;;;22.20;71.60;;;;;;4975274;28;19957;-65
2022/09/01 02:04:08;;;;;;;;;;;21.70;71.20;;;;;;4976605;28;19910;-67
2022/09/01 02:06:34;;;;;;;;;;;21.80;73.60;;;;;;4976399;28;19910;-67
2022/09/01 02:09:02;;;;;;;;;;;21.60;74.60;;;;;;4976168;28;20397;-64
2022/09/01 02:11:31;;;;;;;;;;;21.20;73.60;;;;;;4976361;28;19914;-65
2022/09/01 02:13:57;;;;;;;;;;;21.30;76.90;;;;;;4976345;28;20369;-63
2022/09/01 02:16:24;;;;;;;;;;;21.30;77.40;;;;;;4976415;28;19949;-63
2022/09/01 02:18:50;;;;;;;;;;;20.80;78.20;;;;;;4974785;28;19965;-63
2022/09/01 02:21:19;;;;;;;;;;;20.80;78.90;;;;;;4961552;28;20396;-63
2022/09/01 02:23:59;;;;;;;;;;;20.60;80.20;;;;;;4962653;28;19914;-63
2022/09/01 02:26:30;;;;;;;;;;;20.40;79.60;;;;;;4976070;28;19917;-66
2022/09/01 02:28:56;;;;;;;;;;;20.30;82.90;;;;;;4976047;28;19922;-69
2022/09/01 02:31:22;;;;;;;;;;;20.20;82.90;;;;;;4976024;28;19918;-65
2022/09/01 02:33:47;;;;;;;;;;;20.00;83.10;;;;;;4976029;28;19910;-68
2022/09/01 02:36:14;;;;;;;;;;;19.90;82.90;;;;;;4976061;28;19917;-66
2022/09/01 02:38:44;;;;;;;;;;;20.00;82.40;;;;;;4976101;28;19914;-69
2022/09/01 02:41:11;;;;;;;;;;;19.90;82.90;;;;;;4976030;28;19952;-71
2022/09/01 02:43:38;;;;;;;;;;;19.90;83.60;;;;;;4975834;28;20393;-66
2022/09/01 02:46:05;;;;;;;;;;;19.90;83.60;;;;;;4975847;28;19921;-70
2022/09/01 02:48:35;;;;;;;;;;;19.80;84.00;;;;;;4975783;28;19922;-68
2022/09/01 02:51:01;;;;;;;;;;;19.70;83.00;;;;;;4975682;28;19910;-67
2022/09/01 02:53:28;;;;;;;;;;;19.80;83.80;;;;;;4960878;28;19918;-64
2022/09/01 02:55:57;;;;;;;;;;;19.90;83.70;;;;;;4975722;28;19914;-62
2022/09/01 02:58:23;;;;;;;;;;;20.00;82.10;;;;;;4975233;28;20373;-63
2022/09/01 03:00:53;;;;;;;;;;;20.00;81.40;;;;;;4974236;28;19960;-63
2022/09/01 03:03:20;;;;;;;;;;;19.80;82.40;;;;;;4975488;28;19961;-63
2022/09/01 03:05:46;;;;;;;;;;;19.80;82.30;;;;;;4974193;28;19910;-63
2022/09/01 03:08:14;;;;;;;;;;;19.70;82.00;;;;;;4975160;28;20320;-63
2022/09/01 03:10:41;;;;;;;;;;;19.80;82.20;;;;;;4975320;28;19929;-63
2022/09/01 03:13:09;;;;;;;;;;;19.80;81.70;;;;;;4975328;28;20029;-63
2022/09/01 03:15:35;;;;;;;;;;;19.80;81.80;;;;;;4975309;28;19910;-63
2022/09/01 03:18:01;;;;;;;;;;;19.80;82.40;;;;;;4965627;28;19910;-63
2022/09/01 03:20:29;;;;;;;;;;;19.70;81.80;;;;;;4959630;28;19914;-63
2022/09/01 03:22:56;;;;;;;;;;;19.60;80.80;;;;;;4957359;28;19914;-63
2022/09/01 03:25:23;;;;;;;;;;;19.80;80.60;;;;;;4975094;28;19914;-63
2022/09/01 03:27:50;;;;;;;;;;;19.80;81.50;;;;;;4961350;28;19915;-63
2022/09/01 03:30:16;;;;;;;;;;;19.60;82.30;;;;;;4974868;28;20401;-63
2022/09/01 03:32:42;;;;;;;;;;;19.70;82.10;;;;;;4974980;28;19954;-64
2022/09/01 03:35:08;;;;;;;;;;;19.60;81.90;;;;;;4974993;28;19910;-63
2022/09/01 03:37:35;;;;;;;;;;;19.60;82.20;;;;;;4975055;28;19914;-64
2022/09/01 03:40:03;;;;;;;;;;;19.60;81.90;;;;;;4974628;28;19936;-64
2022/09/01 03:42:30;;;;;;;;;;;19.60;81.90;;;;;;4963955;28;19914;-69
2022/09/01 03:44:56;;;;;;;;;;;19.50;82.30;;;;;;4972322;28;19976;-65
2022/09/01 03:47:23;;;;;;;;;;;19.50;82.20;;;;;;4974918;28;20247;-67
2022/09/01 03:49:49;;;;;;;;;;;19.70;80.80;;;;;;4974578;28;19919;-65
2022/09/01 03:52:16;;;;;;;;;;;19.70;81.40;;;;;;4954337;28;20334;-69
2022/09/01 03:54:42;;;;;;;;;;;19.70;80.20;;;;;;4974427;28;19914;-70
2022/09/01 03:57:09;;;;;;;;;;;19.70;81.60;;;;;;4974542;28;20049;-70
2022/09/01 03:59:35;;;;;;;;;;;19.70;79.40;;;;;;4974544;28;19942;-70
2022/09/01 04:02:01;;;;;;;;;;;19.70;81.10;;;;;;4974477;28;19910;-70
2022/09/01 04:04:30;;;;;;;;;;;19.60;80.90;;;;;;4974059;28;19910;-71
2022/09/01 04:06:55;;;;;;;;;;;19.50;81.60;;;;;;4973968;28;20289;-67
2022/09/01 04:09:21;;;;;;;;;;;19.50;81.40;;;;;;4974290;28;19918;-70
2022/09/01 04:11:47;;;;;;;;;;;19.70;80.10;;;;;;4974205;28;19918;-66
2022/09/01 04:14:13;;;;;;;;;;;19.50;79.90;;;;;;4974087;28;20556;-71
2022/09/01 04:19:25;;;;;;;;;;;19.60;80.30;;;;;;4971247;28;19917;-68
2022/09/01 04:21:53;;;;;;;;;;;19.60;80.40;;;;;;4951073;28;19917;-70
2022/09/01 04:24:19;;;;;;;;;;;19.50;80.90;;;;;;4973966;28;20273;-68
2022/09/01 04:26:45;;;;;;;;;;;19.60;81.30;;;;;;4973889;28;20001;-68
2022/09/01 04:29:11;;;;;;;;;;;19.60;79.80;;;;;;4974062;28;19924;-67
2022/09/01 04:31:37;;;;;;;;;;;19.60;78.90;;;;;;4973832;28;20285;-67
2022/09/01 04:34:12;;;;;;;;;;;19.50;80.00;;;;;;4973972;28;19968;-71
2022/09/01 04:36:40;;;;;;;;;;;19.50;80.70;;;;;;4974209;28;19910;-69
2022/09/01 04:39:08;;;;;;;;;;;19.50;79.00;;;;;;4963174;28;20322;-70
2022/09/01 04:41:36;;;;;;;;;;;19.50;78.50;;;;;;4971621;28;19941;-71
2022/09/01 04:44:03;;;;;;;;;;;19.50;78.40;;;;;;4973781;28;20318;-69
2022/09/01 04:46:31;;;;;;;;;;;19.50;78.30;;;;;;4973788;28;19910;-70
2022/09/01 04:48:58;;;;;;;;;;;19.60;77.70;;;;;;4973361;28;19922;-67
2022/09/01 04:51:26;;;;;;;;;;;19.50;79.00;;;;;;4974138;28;19957;-71
2022/09/01 04:53:53;;;;;;;;;;;19.50;78.20;;;;;;4957678;28;19914;-68
2022/09/01 04:56:21;;;;;;;;;;;19.50;77.70;;;;;;4973506;28;19914;-68
2022/09/01 04:58:51;;;;;;;;;;;19.50;76.70;;;;;;4973320;28;19969;-67
2022/09/01 05:01:18;;;;;;;;;;;19.60;77.30;;;;;;4973375;28;19918;-70
2022/09/01 05:03:44;;;;;;;;;;;19.60;76.20;;;;;;4973461;28;20295;-70
2022/09/01 05:06:17;;;;;;;;;;;19.60;76.30;;;;;;4973515;28;20433;-68
2022/09/01 05:08:44;;;;;;;;;;;19.60;76.00;;;;;;4973065;28;20010;-70
2022/09/01 05:11:10;;;;;;;;;;;19.60;76.30;;;;;;4973399;28;20397;-66
2022/09/01 05:13:39;;;;;;;;;;;19.50;75.70;;;;;;4972953;28;20300;-69
2022/09/01 05:16:11;;;;;;;;;;;19.60;76.10;;;;;;4972887;28;19914;-72
2022/09/01 05:18:46;;;;;;;;;;;19.60;76.10;;;;;;4973135;28;19914;-65
2022/09/01 05:21:15;;;;;;;;;;;19.70;75.80;;;;;;4958371;28;19980;-69
2022/09/01 05:23:45;;;;;;;;;;;19.70;75.00;;;;;;4963651;28;20017;-70
2022/09/01 05:26:16;;;;;;;;;;;19.70;75.30;;;;;;4973272;28;20005;-70
2022/09/01 05:28:46;;;;;;;;;;;19.80;75.00;;;;;;4973004;28;19926;-68
2022/09/01 05:31:12;;;;;;;;;;;19.90;75.10;;;;;;4973225;28;19921;-66
2022/09/01 05:33:44;;;;;;;;;;;19.90;74.70;;;;;;4973146;28;20017;-65
2022/09/01 05:36:20;;;;;;;;;;;19.90;74.40;;;;;;4973109;28;20362;-65
2022/09/01 05:38:46;;;;;;;;;;;19.90;74.60;;;;;;4972837;28;20034;-67
2022/09/01 05:41:13;;;;;;;;;;;19.80;74.60;;;;;;4973014;28;19910;-66
2022/09/01 05:43:44;;;;;;;;;;;19.80;75.90;;;;;;4972919;28;20381;-62
2022/09/01 05:46:09;;;;;;;;;;;19.80;74.90;;;;;;4973177;28;19914;-64
2022/09/01 05:48:38;;;;;;;;;;;19.90;74.70;;;;;;4971543;28;19945;-64
2022/09/01 05:51:08;;;;;;;;;;;19.90;74.10;;;;;;4971816;28;19917;-63
2022/09/01 05:53:33;;;;;;;;;;;20.10;73.70;;;;;;4956349;28;19910;-62
2022/09/01 05:56:05;;;;;;;;;;;20.10;73.30;;;;;;4973155;28;19920;-62
2022/09/01 05:58:31;;;;;;;;;;;20.30;72.70;;;;;;4972767;28;19921;-75
2022/09/01 06:00:58;;;;;;;;;;;20.30;72.40;;;;;;4972606;28;20325;-65
2022/09/01 06:03:25;;;;;;;;;;;20.20;72.90;;;;;;4972537;28;19996;-67
2022/09/01 06:05:54;;;;;;;;;;;20.00;72.60;;;;;;4972794;28;20255;-63
2022/09/01 06:08:21;;;;;;;;;;;20.00;72.60;;;;;;4972381;28;20378;-64
2022/09/01 06:10:49;;;;;;;;;;;20.10;71.70;;;;;;4972656;28;19918;-63
2022/09/01 06:13:15;;;;;;;;;;;20.10;72.50;;;;;;4972547;28;19930;-67
2022/09/01 06:15:43;;;;;;;;;;;20.20;71.80;;;;;;4972694;28;19914;-70
2022/09/01 06:18:11;;;;;;;;;;;20.20;71.50;;;;;;4972819;28;19966;-66
2022/09/01 06:20:39;;;;;;;;;;;20.30;71.30;;;;;;4959712;28;20370;-68
2022/09/01 06:23:04;;;;;;;;;;;20.20;72.30;;;;;;4957764;28;19933;-69
2022/09/01 06:25:31;;;;;;;;;;;20.20;71.10;;;;;;4972836;28;20302;-69
2022/09/01 06:27:57;;;;;;;;;;;20.30;71.30;;;;;;4972312;28;19914;-69
2022/09/01 06:30:25;;;;;;;;;;;20.10;71.70;;;;;;4976130;28;20013;-70
2022/09/01 06:32:51;;;;;;;;;;;20.10;71.70;;;;;;4962062;28;19931;-65
2022/09/01 06:35:17;;;;;;;;;;;20.30;70.60;;;;;;4955519;28;20009;-69
2022/09/01 06:37:43;;;;;;;;;;;20.40;70.20;;;;;;4955673;28;20005;-69
2022/09/01 06:40:15;;;;;;;;;;;20.50;69.70;;;;;;4955548;29;19910;-67
2022/09/01 06:42:46;;;;;;;;;;;20.50;69.90;;;;;;4956727;28;19917;-68
2022/09/01 06:45:13;;;;;;;;;;;20.60;69.50;;;;;;4974653;28;19910;-69
2022/09/01 06:47:41;;;;;;;;;;;20.70;69.70;;;;;;4937917;28;19915;-70
2022/09/01 06:50:07;;;;;;;;;;;20.90;68.80;;;;;;4951467;28;20293;-69
2022/09/01 06:52:33;;;;;;;;;;;21.20;68.00;;;;;;4946335;28;19921;-69
2022/09/01 06:54:59;;;;;;;;;;;21.50;67.20;;;;;;4955465;28;19980;-69
2022/09/01 06:57:26;;;;;;;;;;;21.70;65.30;;;;;;4953794;28;20329;-69
2022/09/01 06:59:52;;;;;;;;;;;21.90;64.40;;;;;;4952837;29;19968;-72
2022/09/01 07:02:18;;;;;;;;;;;22.10;64.10;;;;;;4954912;28;20295;-72
2022/09/01 07:04:44;;;;;;;;;;;22.30;63.50;;;;;;4955093;29;19919;-75
2022/09/01 07:07:11;;;;;;;;;;;22.30;63.00;;;;;;4948927;29;20267;-71
2022/09/01 07:09:38;;;;;;;;;;;22.40;62.40;;;;;;4955324;28;19925;-72
2022/09/01 07:12:04;;;;;;;;;;;22.40;63.10;;;;;;4954699;28;19929;-71
2022/09/01 07:14:32;;;;;;;;;;;22.40;62.40;;;;;;4948413;29;20298;-73
2022/09/01 07:16:58;;;;;;;;;;;22.40;62.10;;;;;;4959924;28;20273;-69
2022/09/01 07:19:24;;;;;;;;;;;22.50;61.50;;;;;;4972435;28;19914;-69
2022/09/01 07:21:50;;;;;;;;;;;22.50;61.70;;;;;;4956193;28;20008;-69
2022/09/01 07:24:17;;;;;;;;;;;22.50;61.00;;;;;;4961587;28;19942;-72
2022/09/01 07:26:43;;;;;;;;;;;22.60;61.50;;;;;;4975278;28;20024;-69
2022/09/01 07:29:09;;;;;;;;;;;22.80;60.70;;;;;;4975040;28;20437;-71
2022/09/01 07:31:37;;;;;;;;;;;23.00;59.50;;;;;;4975214;28;19989;-70
2022/09/01 07:34:04;;;;;;;;;;;23.20;60.40;;;;;;4954837;28;20453;-72
2022/09/01 07:36:31;;;;;;;;;;;23.30;59.60;;;;;;4936113;29;19930;-71
2022/09/01 07:38:58;;;;;;;;;;;23.40;58.70;;;;;;4952940;28;20362;-72
2022/09/01 07:41:24;;;;;;;;;;;23.30;58.50;;;;;;4954930;28;19910;-75
2022/09/01 07:43:52;;;;;;;;;;;23.20;58.40;;;;;;4954673;28;19945;-73
2022/09/01 07:46:18;;;;;;;;;;;23.10;58.70;;;;;;4952328;29;19918;-73
2022/09/01 07:48:44;;;;;;;;;;;23.10;58.80;;;;;;4954294;29;20053;-73
2022/09/01 07:51:11;;;;;;;;;;;23.10;58.60;;;;;;4949220;28;19914;-73
2022/09/01 07:53:37;;;;;;;;;;;23.00;58.40;;;;;;4921968;29;19918;-73
2022/09/01 07:56:08;;;;;;;;;;;23.10;58.50;;;;;;4946033;29;19922;-76
2022/09/01 07:58:34;;;;;;;;;;;23.10;58.40;;;;;;4944920;28;19911;-75
2022/09/01 08:01:02;;;;;;;;;;;23.10;57.30;;;;;;4951316;28;19915;-75
2022/09/01 08:03:29;;;;;;;;;;;23.00;57.70;;;;;;4935588;29;20382;-73
2022/09/01 08:05:59;;;;;;;;;;;22.90;58.60;;;;;;4935345;29;19937;-72
2022/09/01 08:08:25;;;;;;;;;;;22.90;58.30;;;;;;4937639;28;19922;-74
2022/09/01 08:10:51;;;;;;;;;;;22.90;58.30;;;;;;4945718;28;19953;-74
2022/09/01 08:13:17;;;;;;;;;;;22.70;58.20;;;;;;4943441;28;19954;-74
2022/09/01 08:15:42;;;;;;;;;;;22.70;58.30;;;;;;4957863;28;19919;-72
2022/09/01 08:18:08;;;;;;;;;;;22.70;58.20;;;;;;4934181;29;19921;-70
2022/09/01 08:20:38;;;;;;;;;;;22.70;58.30;;;;;;4947773;29;19911;-72
2022/09/01 08:23:04;;;;;;;;;;;22.80;57.70;;;;;;4952039;28;19914;-72
2022/09/01 08:25:31;;;;;;;;;;;22.70;56.20;;;;;;4940191;28;19919;-71
2022/09/01 08:27:56;;;;;;;;;;;22.70;57.10;;;;;;4936521;28;19911;-75
2022/09/01 08:30:22;;;;;;;;;;;22.70;57.50;;;;;;4933333;28;20552;-73
2022/09/01 08:32:48;;;;;;;;;;;22.70;57.40;;;;;;4935063;29;20298;-74
2022/09/01 08:35:15;;;;;;;;;;;22.80;56.90;;;;;;4934792;29;19915;-75
2022/09/01 08:37:41;;;;;;;;;;;22.80;57.00;;;;;;4934747;29;20433;-61
2022/09/01 08:40:07;;;;;;;;;;;22.90;56.30;;;;;;4934798;29;19915;-62
2022/09/01 08:42:45;;;;;;;;;;;22.90;56.10;;;;;;4935060;29;20640;-61
2022/09/01 08:45:11;;;;;;;;;;;22.80;55.90;;;;;;4951673;29;19990;-63
2022/09/01 08:47:37;;;;;;;;;;;22.90;55.90;;;;;;4961802;28;20370;-61
2022/09/01 08:50:02;;;;;;;;;;;22.90;56.70;;;;;;4973374;28;20519;-63
2022/09/01 08:52:37;;;;;;;;;;;22.90;56.70;;;;;;4957518;28;19962;-64
2022/09/01 08:55:15;;;;;;;;;;;23.00;56.00;;;;;;4973683;28;19953;-61
2022/09/01 08:57:43;;;;;;;;;;;23.00;55.50;;;;;;4973865;28;19925;-62
2022/09/01 09:00:11;;;;;;;;;;;22.90;55.80;;;;;;4973855;28;19917;-61
2022/09/01 09:02:55;;;;;;;;;;;23.00;55.20;;;;;;4973607;28;19917;-61
2022/09/01 09:05:32;;;;;;;;;;;23.00;55.00;;;;;;4973541;28;19914;-61
2022/09/01 09:08:07;;;;;;;;;;;23.00;55.60;;;;;;4973296;28;20005;-61
2022/09/01 09:10:52;;;;;;;;;;;23.00;55.00;;;;;;4972945;28;19926;-61
2022/09/01 09:13:21;;;;;;;;;;;23.10;54.80;;;;;;4973323;28;19926;-61
2022/09/01 09:15:52;;;;;;;;;;;23.10;55.90;;;;;;4971493;28;19965;-61
2022/09/01 09:18:18;;;;;;;;;;;23.10;55.70;;;;;;4962506;28;19911;-62
2022/09/01 09:20:44;;;;;;;;;;;23.20;55.50;;;;;;4959312;28;20329;-61
2022/09/01 09:23:23;;;;;;;;;;;23.20;54.70;;;;;;4957782;28;19949;-61
2022/09/01 09:25:49;;;;;;;;;;;23.20;54.20;;;;;;4973332;28;19914;-61
2022/09/01 09:28:15;;;;;;;;;;;23.20;55.60;;;;;;4972975;28;19910;-61
2022/09/01 09:30:41;;;;;;;;;;;23.20;55.50;;;;;;4973029;28;20432;-61
2022/09/01 09:33:09;;;;;;;;;;;23.30;55.50;;;;;;4973085;28;19958;-61
2022/09/01 09:35:42;;;;;;;;;;;23.30;55.20;;;;;;4973100;28;19914;-61
2022/09/01 09:38:38;;;;;;;;;;;23.40;55.00;;;;;;4972773;28;19910;-61
2022/09/01 09:41:05;;;;;;;;;;;23.40;55.40;;;;;;4973195;28;19917;-62
2022/09/01 09:43:34;;;;;;;;;;;23.50;54.50;;;;;;4972889;28;20362;-61
2022/09/01 09:46:20;;;;;;;;;;;23.50;54.20;;;;;;4973258;28;19915;-61
2022/09/01 09:48:46;;;;;;;;;;;23.50;54.30;;;;;;4972820;28;19918;-61
2022/09/01 09:51:21;;;;;;;;;;;23.60;54.00;;;;;;4972742;28;19914;-61
2022/09/01 09:53:47;;;;;;;;;;;23.60;54.20;;;;;;4960510;28;19917;-61
2022/09/01 09:56:25;;;;;;;;;;;23.60;53.70;;;;;;4972859;28;19914;-61
2022/09/01 09:58:52;;;;;;;;;;;23.60;53.50;;;;;;4972748;28;20421;-60
2022/09/01 10:01:24;;;;;;;;;;;23.70;52.50;;;;;;4972877;28;19910;-61
2022/09/01 10:03:51;;;;;;;;;;;23.60;52.80;;;;;;4974181;28;20075;-60
2022/09/01 10:06:29;;;;;;;;;;;23.60;53.50;;;;;;4976628;28;19933;-60
2022/09/01 10:08:54;;;;;;;;;;;23.60;53.20;;;;;;4976012;28;20033;-61
2022/09/01 10:11:24;;;;;;;;;;;23.60;52.80;;;;;;4976326;28;20008;-60
2022/09/01 10:13:51;;;;;;;;;;;23.50;52.80;;;;;;4975999;28;20013;-60
2022/09/01 10:16:30;;;;;;;;;;;23.40;52.40;;;;;;4976176;28;19936;-63
2022/09/01 10:18:59;;;;;;;;;;;23.10;52.60;;;;;;4976018;28;19914;-62
2022/09/01 10:21:33;;;;;;;;;;;23.10;53.50;;;;;;4962779;28;19914;-58
2022/09/01 10:23:59;;;;;;;;;;;23.10;53.20;;;;;;4965628;28;19910;-57
2022/09/01 10:26:34;;;;;;;;;;;22.90;53.30;;;;;;4976006;28;19950;-57
2022/09/01 10:29:03;;;;;;;;;;;22.70;54.60;;;;;;4975910;28;19922;-58
2022/09/01 10:31:29;;;;;;;;;;;22.60;54.60;;;;;;4976070;28;20013;-59
2022/09/01 10:33:55;;;;;;;;;;;22.50;55.20;;;;;;4975816;28;20033;-60
2022/09/01 10:36:21;;;;;;;;;;;22.60;55.40;;;;;;4975898;28;19921;-62
2022/09/01 10:38:47;;;;;;;;;;;22.70;54.40;;;;;;4975862;28;20274;-58
2022/09/01 10:41:32;;;;;;;;;;;23.00;55.30;;;;;;4975809;28;19933;-62
2022/09/01 10:44:06;;;;;;;;;;;22.90;54.80;;;;;;4975811;28;19965;-59
2022/09/01 10:46:32;;;;;;;;;;;22.90;54.50;;;;;;4956882;28;20378;-58
2022/09/01 10:48:58;;;;;;;;;;;22.80;55.20;;;;;;4936744;29;19942;-60
2022/09/01 10:51:23;;;;;;;;;;;22.90;54.50;;;;;;4937663;29;19915;-58
2022/09/01 10:53:52;;;;;;;;;;;23.00;55.00;;;;;;4925196;28;19982;-60
2022/09/01 10:56:37;;;;;;;;;;;22.90;54.50;;;;;;4943585;29;19958;-59
2022/09/01 10:59:05;;;;;;;;;;;22.80;54.50;;;;;;4935849;29;19914;-60
2022/09/01 11:01:39;;;;;;;;;;;22.50;54.20;;;;;;4947967;28;19926;-60
2022/09/01 11:04:06;;;;;;;;;;;22.40;55.00;;;;;;4974724;28;19921;-61
2022/09/01 11:06:40;;;;;;;;;;;22.40;54.60;;;;;;4974830;28;19952;-60
2022/09/01 11:09:18;;;;;;;;;;;22.30;54.30;;;;;;4974376;28;20009;-61
2022/09/01 11:11:55;;;;;;;;;;;22.30;55.20;;;;;;4974749;28;19917;-62
2022/09/01 11:14:22;;;;;;;;;;;22.40;55.10;;;;;;4974068;28;19926;-61
2022/09/01 11:17:06;;;;;;;;;;;22.40;55.30;;;;;;4973246;28;20004;-61
2022/09/01 11:19:44;;;;;;;;;;;22.50;54.80;;;;;;4970408;28;19915;-60
2022/09/01 11:22:12;;;;;;;;;;;22.40;54.90;;;;;;4956963;28;20060;-62
2022/09/01 11:24:38;;;;;;;;;;;22.40;55.20;;;;;;4974519;28;19910;-60
2022/09/01 11:27:04;;;;;;;;;;;22.60;54.60;;;;;;4974327;28;20435;-60
2022/09/01 11:30:06;;;;;;;;;;;22.80;54.90;;;;;;4974261;28;20008;-61
2022/09/01 11:32:33;;;;;;;;;;;22.80;54.40;;;;;;4933756;29;19911;-62
2022/09/01 11:35:01;;;;;;;;;;;22.70;53.30;;;;;;4966116;28;19914;-62
2022/09/01 11:37:26;;;;;;;;;;;22.70;54.30;;;;;;4974236;28;20470;-62
2022/09/01 11:39:57;;;;;;;;;;;22.80;53.60;;;;;;4974190;28;19914;-62
2022/09/01 11:42:26;;;;;;;;;;;23.00;53.20;;;;;;4974023;28;19915;-62
2022/09/01 11:45:02;;;;;;;;;;;23.10;52.90;;;;;;4973931;28;19925;-61
2022/09/01 11:47:39;;;;;;;;;;;23.20;53.20;;;;;;4974027;28;20277;-62
2022/09/01 11:50:19;;;;;;;;;;;23.40;51.80;;;;;;4973572;28;19958;-62
2022/09/01 11:52:55;;;;;;;;;;;23.40;53.10;;;;;;4961047;28;19914;-62
2022/09/01 11:55:28;;;;;;;;;;;23.30;52.30;;;;;;4973659;28;20388;-62
2022/09/01 11:57:54;;;;;;;;;;;23.00;52.30;;;;;;4974105;28;19953;-61
2022/09/01 12:00:27;;;;;;;;;;;22.80;53.60;;;;;;4973377;28;19948;-62
2022/09/01 12:02:53;;;;;;;;;;;23.00;53.20;;;;;;4974018;28;20267;-62
2022/09/01 12:05:27;;;;;;;;;;;23.00;53.00;;;;;;4972202;28;19968;-63
2022/09/01 12:07:53;;;;;;;;;;;23.00;53.10;;;;;;4973661;28;19920;-63
2022/09/01 12:10:25;;;;;;;;;;;23.00;52.70;;;;;;4972191;28;19922;-64
2022/09/01 12:12:59;;;;;;;;;;;23.10;53.30;;;;;;4972088;28;20397;-61
2022/09/01 12:15:25;;;;;;;;;;;23.30;52.30;;;;;;4964139;28;19966;-60
2022/09/01 12:17:51;;;;;;;;;;;23.40;52.60;;;;;;4934451;29;20366;-60
2022/09/01 12:20:31;;;;;;;;;;;23.50;52.30;;;;;;4943095;29;19910;-61
2022/09/01 12:22:57;;;;;;;;;;;23.70;52.10;;;;;;4938678;28;20378;-61
2022/09/01 12:25:25;;;;;;;;;;;23.60;51.60;;;;;;4952633;28;19910;-62
2022/09/01 12:27:51;;;;;;;;;;;23.50;51.20;;;;;;4952647;28;19972;-61
2022/09/01 12:30:17;;;;;;;;;;;23.30;51.40;;;;;;4952537;29;19973;-60
2022/09/01 12:32:43;;;;;;;;;;;23.50;52.00;;;;;;4950411;29;19914;-63
2022/09/01 12:35:18;;;;;;;;;;;23.30;51.90;;;;;;4952937;28;20317;-62
2022/09/01 12:37:45;;;;;;;;;;;23.30;52.00;;;;;;4952782;28;19922;-60
2022/09/01 12:40:22;;;;;;;;;;;23.20;51.80;;;;;;4952685;28;19910;-62
2022/09/01 12:42:49;;;;;;;;;;;23.00;52.00;;;;;;4952847;29;20434;-62
2022/09/01 12:45:34;;;;;;;;;;;22.90;52.70;;;;;;4952575;29;19965;-61
2022/09/01 12:47:59;;;;;;;;;;;22.90;52.60;;;;;;4952579;29;19914;-60
2022/09/01 12:50:25;;;;;;;;;;;22.90;52.10;;;;;;4952074;29;19973;-63
2022/09/01 12:52:57;;;;;;;;;;;23.00;52.00;;;;;;4942885;28;19911;-67
2022/09/01 12:55:27;;;;;;;;;;;23.10;51.50;;;;;;4972635;28;20262;-70
2022/09/01 12:57:54;;;;;;;;;;;23.10;51.30;;;;;;4946098;28;19915;-59
2022/09/01 13:00:22;;;;;;;;;;;23.00;51.30;;;;;;4934103;29;20038;-65
2022/09/01 13:02:49;;;;;;;;;;;23.10;51.20;;;;;;4934135;29;19918;-59
2022/09/01 13:05:25;;;;;;;;;;;23.00;51.40;;;;;;4934028;28;19919;-60
2022/09/01 13:07:53;;;;;;;;;;;23.10;50.90;;;;;;4934274;29;19950;-62
2022/09/01 13:10:19;;;;;;;;;;;23.10;50.90;;;;;;4952047;28;19918;-62
2022/09/01 13:12:45;;;;;;;;;;;23.10;50.90;;;;;;4949660;28;19978;-65
2022/09/01 13:15:11;;;;;;;;;;;23.10;51.50;;;;;;4934009;28;19958;-62
2022/09/01 13:17:39;;;;;;;;;;;23.30;51.30;;;;;;4934608;29;20354;-62
2022/09/01 13:20:05;;;;;;;;;;;23.20;51.10;;;;;;4943427;29;19957;-62
2022/09/01 13:22:31;;;;;;;;;;;23.00;51.20;;;;;;4944131;28;20009;-67
2022/09/01 13:24:56;;;;;;;;;;;23.00;51.20;;;;;;4953147;29;20005;-66
2022/09/01 13:27:22;;;;;;;;;;;23.00;52.00;;;;;;4952810;28;19912;-63
2022/09/01 13:29:48;;;;;;;;;;;23.00;51.80;;;;;;4947264;28;19922;-65
2022/09/01 13:32:13;;;;;;;;;;;22.90;51.20;;;;;;4944927;28;19918;-63
2022/09/01 13:34:40;;;;;;;;;;;22.80;51.50;;;;;;4950563;29;19915;-68
2022/09/01 13:37:05;;;;;;;;;;;22.70;51.90;;;;;;4950577;28;19974;-65
2022/09/01 13:39:31;;;;;;;;;;;22.70;51.60;;;;;;4956402;29;20394;-64
2022/09/01 13:41:56;;;;;;;;;;;22.60;51.90;;;;;;4954962;28;19915;-63
2022/09/01 13:44:22;;;;;;;;;;;22.50;51.70;;;;;;4956212;29;19938;-61
2022/09/01 13:46:47;;;;;;;;;;;22.50;51.90;;;;;;4956413;28;19918;-63
2022/09/01 13:49:13;;;;;;;;;;;22.50;51.70;;;;;;4941897;29;19927;-62
2022/09/01 13:51:39;;;;;;;;;;;22.50;52.70;;;;;;4934633;29;19921;-60
2022/09/01 13:54:04;;;;;;;;;;;22.50;52.80;;;;;;4936051;28;19920;-57
2022/09/01 13:56:30;;;;;;;;;;;22.70;52.70;;;;;;4937650;29;20378;-62
2022/09/01 13:58:56;;;;;;;;;;;22.90;52.20;;;;;;4937205;28;20287;-60
2022/09/01 14:01:21;;;;;;;;;;;23.00;51.40;;;;;;4937219;29;19918;-60
2022/09/01 14:03:48;;;;;;;;;;;23.00;50.70;;;;;;4955145;28;19936;-59
2022/09/01 14:06:14;;;;;;;;;;;23.10;51.30;;;;;;4975782;28;20381;-61
2022/09/01 14:08:39;;;;;;;;;;;23.20;51.60;;;;;;4950208;28;19922;-59
2022/09/01 14:11:05;;;;;;;;;;;23.40;51.10;;;;;;4953445;29;20325;-61
2022/09/01 14:13:31;;;;;;;;;;;23.40;50.20;;;;;;4952002;28;19973;-60
2022/09/01 14:15:57;;;;;;;;;;;23.50;50.30;;;;;;4956893;28;19918;-62
2022/09/01 14:18:23;;;;;;;;;;;23.70;50.00;;;;;;4960459;28;19918;-62
2022/09/01 14:20:50;;;;;;;;;;;23.40;49.10;;;;;;4962622;28;20285;-60
2022/09/01 14:23:16;;;;;;;;;;;23.60;50.90;;;;;;4966117;28;19910;-61
2022/09/01 14:25:44;;;;;;;;;;;23.70;50.10;;;;;;4976157;28;19964;-61
2022/09/01 14:28:09;;;;;;;;;;;23.70;49.60;;;;;;4964624;28;19914;-57
2022/09/01 14:30:36;;;;;;;;;;;23.60;50.10;;;;;;4955037;28;19918;-60